createdAt,value
2023-06-17T00:03:06.789Z,26.04
2023-06-17T00:08:11.902Z,25.18
2023-06-17T00:13:20.892Z,25.01
2023-06-17T00:18:27.508Z,23.74
2023-06-17T00:23:32.470Z,23.81
2023-06-17T00:28:35.931Z,22.98
2023-06-17T00:33:41.806Z,23.05
2023-06-17T00:38:46.897Z,22.22
2023-06-17T00:43:57.112Z,21.83
2023-06-17T00:49:03.517Z,21.45
2023-06-17T00:54:10.013Z,21.17
2023-06-17T00:59:16.190Z,19.76
2023-06-17T01:04:21.973Z,20.37
2023-06-17T01:09:31.319Z,20.41
2023-06-17T01:14:41.875Z,20.92
2023-06-17T01:19:49.492Z,19.66
2023-06-17T01:24:54.538Z,16.28
2023-06-17T01:30:00.443Z,14.53
2023-06-17T01:35:13.584Z,13.89
2023-06-17T01:40:25.745Z,14.29
2023-06-17T01:45:33.385Z,13.99
2023-06-17T01:50:37.194Z,13.86
2023-06-17T01:55:44.534Z,13.33
2023-06-17T02:00:50.585Z,12.73
2023-06-17T02:05:54.180Z,11.63
2023-06-17T02:10:59.046Z,11.62
2023-06-17T02:16:02.935Z,11.38
2023-06-17T02:21:11.344Z,10.82
2023-06-17T02:26:17.267Z,10.82
2023-06-17T02:31:23.426Z,10.77
2023-06-17T02:36:27.503Z,10.03
2023-06-17T02:41:32.920Z,9.69
2023-06-17T02:46:36.477Z,8.44
2023-06-17T02:51:40.007Z,8.22
2023-06-17T02:56:47.414Z,7.94
2023-06-17T03:01:51.056Z,7.50
2023-06-17T03:06:55.353Z,7.72
2023-06-17T03:12:01.421Z,7.71
2023-06-17T03:17:06.442Z,6.91
2023-06-17T03:22:13.000Z,6.67
2023-06-17T03:27:24.139Z,6.75
2023-06-17T03:32:30.033Z,6.61
2023-06-17T03:37:37.502Z,6.94
2023-06-17T03:42:42.801Z,6.99
2023-06-17T03:47:48.995Z,6.96
2023-06-17T03:52:55.156Z,7.54
2023-06-17T03:58:07.860Z,7.85
2023-06-17T04:03:13.861Z,7.55
2023-06-17T04:08:19.471Z,7.65
2023-06-17T04:13:24.215Z,8.48
2023-06-17T04:18:29.648Z,8.87
2023-06-17T04:23:33.257Z,12.85
2023-06-17T04:28:38.220Z,10.69
2023-06-17T04:33:41.831Z,10.72
2023-06-17T04:38:51.092Z,11.19
2023-06-17T04:43:56.380Z,15.29
2023-06-17T04:49:02.307Z,12.99
2023-06-17T04:54:10.253Z,12.70
2023-06-17T04:59:16.189Z,13.07
2023-06-17T05:04:22.318Z,12.79
2023-06-17T05:09:26.728Z,12.53
2023-06-17T05:14:32.330Z,13.32
2023-06-17T05:19:35.935Z,13.36
2023-06-17T05:24:39.540Z,14.18
2023-06-17T05:29:45.463Z,14.40
2023-06-17T05:34:49.265Z,21.04
2023-06-17T05:39:53.276Z,20.26
2023-06-17T05:44:58.565Z,22.98
2023-06-17T05:50:05.993Z,16.84
2023-06-17T05:55:11.965Z,16.62
2023-06-17T06:00:17.476Z,17.04
2023-06-17T06:05:21.602Z,16.82
2023-06-17T06:10:28.775Z,15.00
2023-06-17T06:15:37.244Z,14.81
2023-06-17T06:20:44.812Z,15.99
2023-06-17T06:25:51.300Z,19.68
2023-06-17T06:30:57.426Z,27.67
2023-06-17T06:36:03.412Z,17.00
2023-06-17T06:41:09.405Z,15.19
2023-06-17T06:46:20.858Z,14.43
2023-06-17T06:51:26.844Z,14.31
2023-06-17T06:56:32.967Z,14.59
2023-06-17T07:01:38.404Z,16.10
2023-06-17T07:06:43.129Z,15.20
2023-06-17T07:11:59.343Z,14.75
2023-06-17T07:17:04.683Z,14.26
2023-06-17T07:22:09.963Z,15.28
2023-06-17T07:27:14.686Z,21.11
2023-06-17T07:32:21.945Z,25.12
2023-06-17T07:37:26.416Z,19.26
2023-06-17T07:42:32.931Z,15.95
2023-06-17T07:47:37.878Z,14.81
2023-06-17T07:52:41.563Z,17.08
2023-06-17T07:57:47.315Z,15.65
2023-06-17T08:02:55.204Z,18.34
2023-06-17T08:07:58.818Z,14.72
2023-06-17T08:13:02.359Z,15.31
2023-06-17T08:18:07.465Z,14.43
2023-06-17T08:23:11.132Z,19.54
2023-06-17T08:28:17.354Z,57.35
2023-06-17T08:33:22.566Z,15.95
2023-06-17T08:38:28.780Z,14.20
2023-06-17T08:43:33.352Z,15.13
2023-06-17T08:48:38.729Z,16.13
2023-06-17T08:53:44.703Z,12.40
2023-06-17T08:58:48.815Z,12.78
2023-06-17T09:03:56.486Z,12.26
2023-06-17T09:09:02.450Z,11.76
2023-06-17T09:14:06.919Z,12.91
2023-06-17T09:19:14.737Z,12.35
2023-06-17T09:24:30.242Z,12.18
2023-06-17T09:29:37.646Z,12.61
2023-06-17T09:34:51.003Z,21.27
2023-06-17T09:39:57.170Z,15.80
2023-06-17T09:45:04.672Z,12.71
2023-06-17T09:50:11.903Z,11.81
2023-06-17T09:55:15.776Z,11.41
2023-06-17T10:00:21.255Z,11.74
2023-06-17T10:05:26.662Z,11.15
2023-06-17T10:10:30.836Z,11.51
2023-06-17T10:15:34.782Z,11.13
2023-06-17T10:20:40.797Z,11.24
2023-06-17T10:25:47.415Z,12.26
2023-06-17T10:30:53.517Z,29.96
2023-06-17T10:36:10.982Z,41.03
2023-06-17T10:41:14.494Z,14.79
2023-06-17T10:46:25.891Z,11.66
2023-06-17T10:51:41.462Z,19.41
2023-06-17T10:56:52.070Z,23.05
2023-06-17T11:02:01.525Z,14.29
2023-06-17T11:07:09.610Z,13.94
2023-06-17T11:12:17.594Z,30.43
2023-06-17T11:17:21.155Z,21.30
2023-06-17T11:22:26.282Z,15.47
2023-06-17T11:27:29.886Z,15.65
2023-06-17T11:32:37.056Z,15.71
2023-06-17T11:37:45.626Z,16.24
2023-06-17T11:42:49.413Z,34.51
2023-06-17T11:47:53.214Z,22.30
2023-06-17T11:53:00.201Z,15.48
2023-06-17T11:58:04.834Z,15.85
2023-06-17T12:03:08.804Z,15.85
2023-06-17T12:08:14.030Z,15.93
2023-06-17T12:13:18.068Z,23.64
2023-06-17T12:18:21.581Z,15.61
2023-06-17T12:23:26.518Z,14.50
2023-06-17T12:28:33.668Z,24.51
2023-06-17T12:33:37.633Z,19.74
2023-06-17T12:38:45.809Z,14.83
2023-06-17T12:43:49.697Z,14.75
2023-06-17T12:48:53.370Z,12.49
2023-06-17T12:54:00.338Z,11.25
2023-06-17T12:59:06.481Z,11.68
2023-06-17T13:04:10.045Z,11.76
2023-06-17T13:09:15.417Z,12.07
2023-06-17T13:14:20.750Z,10.99
2023-06-17T13:19:25.043Z,11.82
2023-06-17T13:24:29.897Z,21.56
2023-06-17T13:29:33.875Z,11.98
2023-06-17T13:34:37.863Z,12.01
2023-06-17T13:39:42.792Z,14.81
2023-06-17T13:44:46.356Z,12.72
2023-06-17T13:49:49.976Z,12.16
2023-06-17T13:54:54.987Z,11.51
2023-06-17T14:00:03.472Z,10.86
2023-06-17T14:05:09.886Z,11.38
2023-06-17T14:10:17.319Z,11.60
2023-06-17T14:15:20.941Z,11.34
2023-06-17T14:20:24.588Z,35.07
2023-06-17T14:25:29.789Z,17.59
2023-06-17T14:30:33.454Z,11.85
2023-06-17T14:35:41.102Z,11.63
2023-06-17T14:40:50.460Z,11.45
2023-06-17T14:45:59.441Z,11.86
2023-06-17T14:51:08.322Z,10.82
2023-06-17T14:56:29.107Z,11.07
2023-06-17T15:01:33.711Z,18.28
2023-06-17T15:06:38.571Z,12.41
2023-06-17T15:11:45.955Z,10.84
2023-06-17T15:16:50.075Z,10.69
2023-06-17T15:21:54.095Z,10.97
2023-06-17T15:26:58.985Z,10.79
2023-06-17T15:32:02.561Z,10.84
2023-06-17T15:37:09.960Z,10.94
2023-06-17T15:42:15.782Z,11.69
2023-06-17T15:47:19.330Z,12.52
2023-06-17T15:52:27.265Z,15.86
2023-06-17T15:57:37.895Z,28.29
2023-06-17T16:02:42.155Z,13.29
2023-06-17T16:07:48.721Z,12.10
2023-06-17T16:13:00.321Z,11.65
2023-06-17T16:18:07.848Z,12.23
2023-06-17T16:23:16.965Z,13.08
2023-06-17T16:28:24.148Z,29.59
2023-06-17T16:33:27.617Z,16.63
2023-06-17T16:38:31.178Z,12.66
2023-06-17T16:43:36.020Z,13.12
2023-06-17T16:48:39.858Z,14.35
2023-06-17T16:53:43.828Z,13.13
2023-06-17T16:58:48.771Z,13.30
2023-06-17T17:03:55.199Z,15.93
2023-06-17T17:08:58.625Z,12.91
2023-06-17T17:14:03.563Z,12.85
2023-06-17T17:19:09.291Z,12.79
2023-06-17T17:24:13.559Z,12.76
2023-06-17T17:29:18.500Z,12.98
2023-06-17T17:34:21.929Z,14.20
2023-06-17T17:39:27.714Z,14.15
2023-06-17T17:44:35.087Z,13.63
2023-06-17T17:49:38.620Z,14.70
2023-06-17T17:54:57.116Z,13.41
2023-06-17T18:00:07.076Z,13.58
2023-06-17T18:05:18.833Z,14.25
2023-06-17T18:10:22.475Z,13.68
2023-06-17T18:15:27.575Z,17.66
2023-06-17T18:20:33.312Z,14.88
2023-06-17T18:25:39.165Z,14.27
2023-06-17T18:30:43.989Z,14.33
2023-06-17T18:35:47.579Z,15.29
2023-06-17T18:40:51.077Z,15.70
2023-06-17T18:45:56.004Z,16.86
2023-06-17T18:50:59.643Z,15.56
2023-06-17T18:56:03.388Z,16.80
2023-06-17T19:01:08.353Z,17.13
2023-06-17T19:06:12.173Z,26.07
2023-06-17T19:11:16.488Z,17.97
2023-06-17T19:16:22.061Z,18.07
2023-06-17T19:21:25.820Z,17.33
2023-06-17T19:26:29.250Z,16.68
2023-06-17T19:31:34.351Z,17.62
2023-06-17T19:36:40.383Z,17.62
2023-06-17T19:41:43.919Z,18.37
2023-06-17T19:46:49.016Z,18.80
2023-06-17T19:51:52.615Z,19.05
2023-06-17T19:56:56.270Z,19.83
2023-06-17T20:02:04.103Z,19.61
2023-06-17T20:07:12.326Z,19.51
2023-06-17T20:12:16.612Z,19.90
2023-06-17T20:17:23.583Z,22.35
2023-06-17T20:22:31.620Z,19.71
2023-06-17T20:27:35.127Z,17.99
2023-06-17T20:32:40.132Z,17.63
2023-06-17T20:37:44.361Z,17.90
2023-06-17T20:42:47.904Z,18.09
2023-06-17T20:47:52.933Z,18.04
2023-06-17T20:52:57.781Z,18.37
2023-06-17T20:58:01.688Z,18.52
2023-06-17T21:03:06.805Z,20.54
2023-06-17T21:08:10.453Z,21.61
2023-06-17T21:13:14.091Z,19.84
2023-06-17T21:18:18.948Z,21.29
2023-06-17T21:23:22.571Z,20.36
2023-06-17T21:28:26.044Z,20.91
2023-06-17T21:33:31.377Z,23.02
2023-06-17T21:38:39.719Z,23.35
2023-06-17T21:43:45.836Z,23.89
2023-06-17T21:48:55.865Z,23.92
2023-06-17T21:54:00.320Z,26.26
2023-06-17T21:59:03.998Z,25.30
2023-06-17T22:04:09.254Z,25.00
2023-06-17T22:09:13.254Z,25.17
2023-06-17T22:14:19.680Z,25.02
2023-06-17T22:19:26.637Z,25.67
2023-06-17T22:24:30.259Z,24.76
2023-06-17T22:29:35.916Z,26.39
2023-06-17T22:34:40.818Z,26.77
2023-06-17T22:39:57.641Z,27.82
2023-06-17T22:45:02.852Z,27.90
2023-06-17T22:50:15.716Z,27.83
2023-06-17T22:55:19.559Z,27.53
2023-06-17T23:00:25.647Z,27.12
2023-06-17T23:05:30.593Z,28.98
2023-06-17T23:10:34.070Z,28.31
2023-06-17T23:15:39.613Z,28.32
2023-06-17T23:20:45.134Z,28.64
2023-06-17T23:25:51.185Z,28.03
2023-06-17T23:30:54.591Z,28.21
2023-06-17T23:36:04.193Z,29.17
2023-06-17T23:41:10.078Z,28.68
2023-06-17T23:46:14.578Z,27.79
2023-06-17T23:51:19.792Z,30.11
2023-06-17T23:56:28.220Z,31.03
